Time;durP1;ratioP1;P1;durP2;ratioP2;P2;SDS_P1;SDS_P2;PMS_P1;PMS_P2;Temp;Humidity;BMP_temperature;BMP_pressure;BME280_temperature;BME280_humidity;BME280_pressure;Samples;Min_cycle;Max_cycle;Signal;HPM_P1;HPM_P2
2021/05/27 00:00:58;;;;;;;7.72;4.75;;;;;;;14.21;61.14;99673.22;4997584;28;20051;-70
2021/05/27 00:03:26;;;;;;;5.20;4.25;;;;;;;14.16;61.55;99672.81;4994080;28;20050;-72
2021/05/27 00:05:52;;;;;;;8.68;4.93;;;;;;;14.11;61.76;99662.63;4993499;28;20333;-70
2021/05/27 00:08:18;;;;;;;6.20;4.22;;;;;;;14.10;61.90;99668.13;4994103;28;20053;-72
2021/05/27 00:10:47;;;;;;;5.80;4.03;;;;;;;14.11;61.86;99675.06;4998371;28;20052;-73
2021/05/27 00:13:14;;;;;;;6.18;4.55;;;;;;;14.20;61.76;99679.50;5002891;28;20031;-74
2021/05/27 00:15:42;;;;;;;6.78;3.88;;;;;;;14.29;61.67;99686.56;5007450;28;20059;-73
2021/05/27 00:18:09;;;;;;;4.97;3.80;;;;;;;14.32;61.27;99685.44;4989302;28;20042;-74
2021/05/27 00:20:36;;;;;;;6.40;4.10;;;;;;;14.30;61.47;99688.25;5002884;28;20062;-72
2021/05/27 00:23:03;;;;;;;6.28;3.80;;;;;;;14.25;62.17;99682.53;4968919;28;20090;-70
2021/05/27 00:25:29;;;;;;;7.60;4.10;;;;;;;14.23;61.98;99689.00;5001307;28;20398;-69
2021/05/27 00:27:56;;;;;;;6.88;3.95;;;;;;;14.20;62.08;99691.94;5000415;28;20074;-69
2021/05/27 00:30:22;;;;;;;7.90;4.55;;;;;;;14.17;62.24;99682.47;5002742;28;20055;-70
2021/05/27 00:32:50;;;;;;;6.10;4.40;;;;;;;14.17;62.27;99677.16;5001842;28;20055;-69
2021/05/27 00:35:17;;;;;;;7.68;4.53;;;;;;;14.14;62.40;99678.28;4999006;28;20042;-68
2021/05/27 00:37:43;;;;;;;8.95;4.63;;;;;;;14.12;62.36;99679.41;4997183;28;20050;-67
2021/05/27 00:40:13;;;;;;;6.93;3.72;;;;;;;14.10;62.40;99676.06;4996702;28;20042;-70
2021/05/27 00:42:41;;;;;;;8.00;4.43;;;;;;;14.05;62.43;99675.69;4991526;28;20053;-72
2021/05/27 00:45:10;;;;;;;8.23;4.38;;;;;;;14.02;62.54;99676.78;4995375;28;20074;-69
2021/05/27 00:47:37;;;;;;;7.95;4.28;;;;;;;14.01;62.63;99679.59;4995913;28;20125;-69
2021/05/27 00:50:08;;;;;;;6.03;3.90;;;;;;;14.03;62.23;99672.34;4990771;28;20055;-70
2021/05/27 00:52:34;;;;;;;10.50;4.65;;;;;;;14.00;62.33;99665.50;4989785;28;20463;-70
2021/05/27 00:55:04;;;;;;;6.68;3.97;;;;;;;13.97;62.56;99673.75;4990780;28;20526;-69
2021/05/27 00:57:32;;;;;;;5.85;3.75;;;;;;;13.95;62.63;99665.94;4992667;28;20082;-69
2021/05/27 01:00:00;;;;;;;8.02;3.60;;;;;;;13.98;62.53;99667.47;4996167;28;20058;-70
2021/05/27 01:02:26;;;;;;;5.47;3.65;;;;;;;14.02;62.38;99670.66;4989611;28;20767;-69
2021/05/27 01:04:54;;;;;;;5.80;3.47;;;;;;;14.06;62.08;99677.34;4990958;28;20088;-69
2021/05/27 01:07:25;;;;;;;5.97;3.72;;;;;;;14.08;62.04;99680.69;4991266;28;20043;-68
2021/05/27 01:09:52;;;;;;;6.68;3.88;;;;;;;14.08;61.96;99665.59;4990119;28;20570;-70
2021/05/27 01:12:18;;;;;;;5.13;3.53;;;;;;;14.11;61.60;99669.75;4989483;28;20051;-70
2021/05/27 01:17:29;;;;;;;6.00;3.67;;;;;;;14.16;61.71;99670.16;4990235;28;20057;-71
2021/05/27 01:19:55;;;;;;;4.10;3.53;;;;;;;14.16;61.55;99667.50;4940452;28;20081;-70
2021/05/27 01:22:23;;;;;;;5.72;3.67;;;;;;;14.17;61.43;99666.53;4990747;28;20052;-68
2021/05/27 01:24:50;;;;;;;6.57;4.03;;;;;;;14.19;61.58;99664.56;4991612;28;20047;-71
2021/05/27 01:27:18;;;;;;;5.63;3.70;;;;;;;14.21;61.28;99657.28;4991850;28;20122;-68
2021/05/27 01:29:51;;;;;;;4.70;3.78;;;;;;;14.27;61.16;99661.16;4988977;28;20046;-69
2021/05/27 01:32:18;;;;;;;5.65;4.25;;;;;;;14.27;60.88;99659.31;4989255;28;20131;-68
2021/05/27 01:34:44;;;;;;;5.75;3.45;;;;;;;14.23;60.83;99662.44;4991490;28;20046;-70
2021/05/27 01:37:11;;;;;;;6.38;3.92;;;;;;;14.19;61.16;99667.22;4989297;28;20603;-70
2021/05/27 01:39:39;;;;;;;5.40;4.05;;;;;;;14.11;61.39;99661.81;4989650;28;20120;-70
2021/05/27 01:42:06;;;;;;;5.88;4.50;;;;;;;14.09;61.36;99661.94;4992206;28;20058;-69
2021/05/27 01:44:32;;;;;;;7.05;3.83;;;;;;;14.09;61.22;99663.78;5003149;28;20057;-69
2021/05/27 01:46:59;;;;;;;6.28;3.22;;;;;;;14.08;61.39;99662.09;4991238;28;20143;-70
2021/05/27 01:49:25;;;;;;;7.72;5.47;;;;;;;14.05;61.33;99660.56;4991531;28;20062;-70
2021/05/27 01:51:52;;;;;;;7.00;4.32;;;;;;;14.02;61.40;99660.88;4988061;28;20043;-68
2021/05/27 01:54:18;;;;;;;8.48;4.95;;;;;;;13.98;61.62;99663.97;4971376;28;20073;-69
2021/05/27 01:56:50;;;;;;;7.63;4.95;;;;;;;13.93;61.61;99662.59;4987797;28;20054;-68
2021/05/27 01:59:17;;;;;;;7.72;3.90;;;;;;;13.86;61.81;99655.38;4989557;28;20050;-69
2021/05/27 02:01:44;;;;;;;7.38;3.67;;;;;;;13.79;61.96;99660.41;4989198;28;20046;-70
2021/05/27 02:04:10;;;;;;;5.10;3.67;;;;;;;13.72;62.19;99646.91;4972660;28;20375;-70
2021/05/27 02:06:36;;;;;;;8.15;4.35;;;;;;;13.63;62.30;99652.25;4991079;28;20046;-70
2021/05/27 02:09:10;;;;;;;7.43;3.72;;;;;;;13.55;62.82;99652.97;4988146;28;20065;-70
2021/05/27 02:11:38;;;;;;;7.55;3.55;;;;;;;13.51;62.63;99660.41;4987675;28;20050;-71
2021/05/27 02:14:06;;;;;;;6.43;4.35;;;;;;;13.50;62.59;99661.34;4988816;28;20042;-70
2021/05/27 02:16:34;;;;;;;7.78;3.60;;;;;;;13.48;62.50;99660.66;4988960;28;20054;-71
2021/05/27 02:19:00;;;;;;;5.68;3.53;;;;;;;13.46;62.57;99670.59;4988871;28;20050;-70
2021/05/27 02:21:28;;;;;;;8.32;3.30;;;;;;;13.44;62.51;99659.28;4988744;28;20054;-70
2021/05/27 02:23:55;;;;;;;7.93;4.32;;;;;;;13.41;62.54;99656.91;4988945;28;20094;-71
2021/05/27 02:26:22;;;;;;;7.85;4.03;;;;;;;13.41;62.61;99658.75;4989268;28;20423;-69
2021/05/27 02:28:49;;;;;;;9.07;3.72;;;;;;;13.40;62.71;99660.56;4971168;28;20056;-71
2021/05/27 02:31:18;;;;;;;5.93;3.80;;;;;;;13.33;62.88;99660.31;4988482;28;20103;-71
2021/05/27 02:33:45;;;;;;;6.95;3.42;;;;;;;13.30;62.85;99670.34;4988987;28;20406;-70
2021/05/27 02:36:12;;;;;;;7.25;4.25;;;;;;;13.24;63.05;99673.56;4936998;28;20043;-70
2021/05/27 02:38:39;;;;;;;7.10;3.65;;;;;;;13.22;63.18;99673.72;4988757;28;20058;-75
2021/05/27 02:41:07;;;;;;;4.15;2.92;;;;;;;13.22;63.07;99668.41;4988357;28;20051;-74
2021/05/27 02:43:34;;;;;;;6.72;3.35;;;;;;;13.23;62.78;99670.06;4988286;28;20062;-70
2021/05/27 02:46:01;;;;;;;6.53;3.85;;;;;;;13.24;62.73;99671.75;4988155;28;20487;-71
2021/05/27 02:48:31;;;;;;;4.32;3.13;;;;;;;13.23;62.89;99675.34;4987752;28;20049;-72
2021/05/27 02:50:59;;;;;;;6.63;3.55;;;;;;;13.22;63.00;99676.34;4987653;28;20434;-69
2021/05/27 02:53:25;;;;;;;6.72;4.03;;;;;;;13.20;62.74;99673.00;4987879;28;20187;-70
2021/05/27 02:55:52;;;;;;;8.88;3.72;;;;;;;13.20;62.85;99678.31;4969498;28;20069;-72
2021/05/27 02:58:19;;;;;;;6.10;3.38;;;;;;;13.25;62.74;99680.53;4988831;28;20058;-69
2021/05/27 03:00:46;;;;;;;7.15;3.47;;;;;;;13.32;62.37;99686.97;4988738;28;20576;-70
2021/05/27 03:03:15;;;;;;;5.20;3.40;;;;;;;13.43;62.29;99675.34;4988120;28;20058;-70
2021/05/27 03:05:46;;;;;;;7.05;3.50;;;;;;;13.51;61.97;99673.66;4988776;28;20105;-69
2021/05/27 03:08:12;;;;;;;7.65;3.65;;;;;;;13.56;62.03;99674.06;4988020;28;20054;-69
2021/05/27 03:10:39;;;;;;;11.05;3.50;;;;;;;13.60;61.81;99669.31;4987479;28;20050;-70
2021/05/27 03:13:07;;;;;;;6.70;3.78;;;;;;;13.63;61.93;99678.78;4987228;28;20050;-68
2021/05/27 03:15:35;;;;;;;4.25;2.92;;;;;;;13.65;61.74;99680.31;4988455;28;20050;-71
2021/05/27 03:18:02;;;;;;;5.28;2.70;;;;;;;13.69;61.56;99675.56;4987428;28;20570;-70
2021/05/27 03:20:29;;;;;;;5.55;3.17;;;;;;;13.75;61.17;99674.97;4987272;28;20124;-71
2021/05/27 03:22:56;;;;;;;5.72;3.20;;;;;;;13.86;60.82;99676.59;4987848;28;20108;-69
2021/05/27 03:25:23;;;;;;;4.68;2.63;;;;;;;13.95;60.50;99681.03;4990464;28;20104;-71
2021/05/27 03:27:49;;;;;;;7.60;3.70;;;;;;;14.03;60.10;99682.97;4987541;28;20050;-68
2021/05/27 03:30:17;;;;;;;9.57;3.13;;;;;;;14.10;59.98;99679.56;4986733;28;20510;-69
2021/05/27 03:32:43;;;;;;;3.20;2.30;;;;;;;14.15;59.54;99687.94;4986779;28;20058;-70
2021/05/27 03:35:11;;;;;;;4.50;2.40;;;;;;;14.21;59.43;99681.19;4987150;28;20046;-69
2021/05/27 03:37:38;;;;;;;3.97;3.00;;;;;;;14.27;59.19;99683.22;4986565;28;20046;-69
2021/05/27 03:40:13;;;;;;;7.47;2.80;;;;;;;14.34;58.97;99692.28;4999755;28;20051;-70
2021/05/27 03:42:42;;;;;;;5.88;3.25;;;;;;;14.42;58.53;99688.03;4985969;28;20049;-71
2021/05/27 03:45:10;;;;;;;7.20;2.83;;;;;;;14.46;58.52;99684.13;4987328;28;20085;-69
2021/05/27 03:47:38;;;;;;;8.05;2.78;;;;;;;14.50;58.44;99685.47;4987071;28;20050;-71
2021/05/27 03:50:06;;;;;;;4.93;2.40;;;;;;;14.52;58.33;99689.63;4987601;28;20046;-70
2021/05/27 03:52:32;;;;;;;3.78;2.55;;;;;;;14.59;58.35;99699.72;4986741;28;20054;-71
2021/05/27 03:54:58;;;;;;;4.75;3.17;;;;;;;14.62;58.03;99700.25;4986826;28;20057;-72
2021/05/27 03:57:26;;;;;;;6.28;2.80;;;;;;;14.69;58.10;99684.50;4989013;28;20057;-71
2021/05/27 04:02:41;;;;;;;5.20;3.00;;;;;;;14.84;57.58;99690.97;4970209;28;20061;-70
2021/05/27 04:07:53;;;;;;;6.97;2.55;;;;;;;14.94;57.40;99698.03;4987027;28;20058;-70
2021/05/27 04:10:20;;;;;;;7.00;3.50;;;;;;;14.97;57.19;99703.88;4986572;28;20375;-67
2021/05/27 04:12:48;;;;;;;6.07;3.35;;;;;;;15.01;57.03;99702.56;4992937;28;20043;-70
2021/05/27 04:15:23;;;;;;;6.75;3.00;;;;;;;15.05;56.96;99708.44;4987580;28;20042;-70
2021/05/27 04:17:54;;;;;;;4.90;2.75;;;;;;;15.02;56.96;99714.91;4969530;28;20657;-70
2021/05/27 04:20:22;;;;;;;5.78;2.70;;;;;;;14.94;57.11;99714.81;4987113;28;20064;-70
2021/05/27 04:22:48;;;;;;;5.68;3.20;;;;;;;14.91;57.32;99721.28;4986526;28;20038;-70
2021/05/27 04:25:17;;;;;;;5.13;2.85;;;;;;;14.84;57.33;99725.53;4990494;28;20046;-73
2021/05/27 04:27:44;;;;;;;6.03;2.95;;;;;;;14.75;57.46;99721.13;4989449;28;20069;-69
2021/05/27 04:30:14;;;;;;;2.97;2.58;;;;;;;14.72;57.65;99726.75;4989001;28;20054;-70
2021/05/27 04:33:00;;;;;;;4.32;2.78;;;;;;;14.80;57.62;99728.66;4989864;28;20465;-74
2021/05/27 04:35:41;;;;;;;6.38;2.90;;;;;;;15.33;56.50;99730.44;4994935;28;20054;-72
2021/05/27 04:38:09;;;;;;;3.83;2.72;;;;;;;16.11;54.70;99726.94;4992653;28;20061;-71
2021/05/27 04:40:36;;;;;;;5.40;2.53;;;;;;;16.54;53.65;99729.59;4991875;28;20411;-72
2021/05/27 04:43:04;;;;;;;4.65;3.33;;;;;;;16.79;52.99;99736.63;4991064;28;20750;-71
2021/05/27 04:45:32;;;;;;;4.78;2.63;;;;;;;16.99;52.58;99729.19;4991608;28;20054;-70
2021/05/27 04:47:58;;;;;;;5.13;2.80;;;;;;;17.51;51.64;99721.84;4994324;28;20046;-70
2021/05/27 04:50:25;;;;;;;6.28;3.55;;;;;;;18.37;49.90;99722.94;4992532;28;20054;-72
2021/05/27 04:52:53;;;;;;;6.32;2.90;;;;;;;18.50;49.32;99720.50;4976416;28;20046;-70
2021/05/27 04:55:21;;;;;;;6.22;2.88;;;;;;;18.26;49.56;99720.66;4991461;28;20133;-72
2021/05/27 04:57:50;;;;;;;4.50;2.70;;;;;;;17.76;50.50;99715.44;4993568;28;20069;-72
2021/05/27 05:00:19;;;;;;;7.10;2.92;;;;;;;17.30;51.29;99727.69;4996948;28;20046;-69
2021/05/27 05:02:47;;;;;;;5.78;2.83;;;;;;;16.98;52.12;99732.88;4994538;28;20042;-69
2021/05/27 05:05:15;;;;;;;3.53;2.03;;;;;;;16.68;52.39;99725.47;4994319;28;20137;-74
2021/05/27 05:07:43;;;;;;;5.22;2.72;;;;;;;16.43;53.05;99731.53;4992338;28;20053;-71
2021/05/27 05:10:13;;;;;;;4.13;2.78;;;;;;;16.34;53.21;99737.03;4993052;28;20678;-71
2021/05/27 05:12:46;;;;;;;13.82;5.43;;;;;;;16.48;53.21;99727.59;4989621;28;20054;-74
2021/05/27 05:15:15;;;;;;;5.88;3.38;;;;;;;17.02;52.05;99738.72;4990790;28;20043;-73
2021/05/27 05:17:42;;;;;;;5.13;3.10;;;;;;;17.83;50.37;99730.78;4991282;28;20316;-72
2021/05/27 05:20:10;;;;;;;48.33;42.33;;;;;;;18.78;48.34;99730.72;4991658;28;20050;-72
2021/05/27 05:22:37;;;;;;;11.27;7.88;;;;;;;20.25;45.82;99733.88;4989983;28;20611;-71
2021/05/27 05:25:04;;;;;;;14.98;6.55;;;;;;;21.61;42.93;99735.91;4991501;28;20472;-72
2021/05/27 05:27:33;;;;;;;12.85;6.45;;;;;;;22.87;40.49;99734.84;4989903;28;20061;-73
2021/05/27 05:30:00;;;;;;;5.88;2.85;;;;;;;24.08;38.60;99738.38;4940462;28;20417;-72
2021/05/27 05:32:26;;;;;;;6.32;3.33;;;;;;;24.57;37.22;99732.34;4990441;28;20097;-76
2021/05/27 05:34:54;;;;;;;7.15;2.90;;;;;;;23.83;37.78;99741.75;4989556;28;20050;-73
2021/05/27 05:37:23;;;;;;;5.80;3.15;;;;;;;22.79;39.02;99745.78;4990980;28;20057;-73
2021/05/27 05:39:49;;;;;;;3.90;1.90;;;;;;;21.65;41.17;99749.78;4992409;28;20410;-75
2021/05/27 05:42:15;;;;;;;2.60;1.90;;;;;;;20.99;42.10;99756.19;4996751;28;20047;-74
2021/05/27 05:44:42;;;;;;;4.93;3.15;;;;;;;20.28;42.78;99753.31;4991265;28;20439;-81
2021/05/27 05:47:08;;;;;;;3.85;2.17;;;;;;;19.49;44.03;99755.44;4999456;28;20054;-75
2021/05/27 05:49:35;;;;;;;3.88;2.45;;;;;;;19.20;45.01;99761.56;5002960;28;20038;-74
2021/05/27 05:52:01;;;;;;;5.40;2.38;;;;;;;19.11;45.01;99762.63;5001644;28;20169;-73
2021/05/27 05:54:29;;;;;;;2.45;1.88;;;;;;;18.99;45.39;99764.88;5011171;28;20155;-75
2021/05/27 05:56:55;;;;;;;9.43;2.38;;;;;;;18.97;45.34;99769.56;5019537;28;20054;-74
2021/05/27 05:59:21;;;;;;;1.63;1.50;;;;;;;18.99;45.21;99772.91;5022716;28;20041;-75
2021/05/27 06:01:50;;;;;;;3.88;2.00;;;;;;;19.03;45.07;99776.06;5017666;28;20142;-76
2021/05/27 06:04:16;;;;;;;3.38;2.05;;;;;;;19.04;45.24;99770.53;5018618;28;20070;-74
2021/05/27 06:06:43;;;;;;;2.85;2.17;;;;;;;19.12;45.13;99774.97;5026983;28;20048;-74
2021/05/27 06:09:09;;;;;;;3.25;2.33;;;;;;;19.15;45.04;99765.78;4984018;28;20050;-74
2021/05/27 06:11:37;;;;;;;4.15;1.98;;;;;;;19.33;44.92;99766.28;5015421;28;20421;-74
2021/05/27 06:14:04;;;;;;;5.57;2.05;;;;;;;19.41;44.62;99763.56;5017891;28;20073;-73
2021/05/27 06:16:34;;;;;;;4.68;1.75;;;;;;;19.57;44.45;99767.94;5020233;28;20081;-74
2021/05/27 06:19:00;;;;;;;4.30;1.77;;;;;;;19.38;43.20;99776.47;4918599;29;20056;-75
2021/05/27 06:21:26;;;;;;;4.93;1.50;;;;;;;19.25;43.37;99767.22;4915625;29;20095;-72
2021/05/27 06:23:53;;;;;;;4.63;1.63;;;;;;;19.15;43.17;99782.66;4914919;29;20079;-75
2021/05/27 06:26:19;;;;;;;2.00;1.42;;;;;;;18.90;43.66;99780.16;4913007;29;20129;-73
2021/05/27 06:28:47;;;;;;;4.57;1.50;;;;;;;18.50;44.38;99786.53;4912409;29;20052;-75
2021/05/27 06:31:13;;;;;;;3.55;1.65;;;;;;;18.35;44.68;99786.44;4912406;29;20056;-75
2021/05/27 06:33:44;;;;;;;6.72;1.65;;;;;;;18.05;45.62;99794.22;4912216;29;20052;-75
2021/05/27 06:36:11;;;;;;;2.53;1.30;;;;;;;17.61;46.14;99807.94;4928144;28;20128;-73
2021/05/27 06:38:37;;;;;;;2.53;1.55;;;;;;;17.42;46.15;99797.59;4978893;28;20137;-71
2021/05/27 06:41:04;;;;;;;2.55;1.30;;;;;;;17.44;45.86;99800.94;4966469;28;20054;-72
2021/05/27 06:43:31;;;;;;;2.08;1.13;;;;;;;17.52;45.21;99799.09;4972343;28;20378;-74
2021/05/27 06:45:58;;;;;;;2.28;1.33;;;;;;;17.25;45.40;99810.94;4968829;28;20550;-73
2021/05/27 06:48:25;;;;;;;4.18;1.40;;;;;;;17.22;46.18;99799.75;4969120;28;20050;-74
2021/05/27 06:50:52;;;;;;;2.42;1.10;;;;;;;17.29;45.47;99798.09;4970255;28;20119;-74
2021/05/27 06:53:20;;;;;;;4.63;1.92;;;;;;;17.23;45.84;99804.91;4970401;28;20047;-74
2021/05/27 06:55:47;;;;;;;4.13;1.80;;;;;;;17.43;45.53;99802.78;4971395;28;20058;-75
2021/05/27 06:58:15;;;;;;;2.70;1.27;;;;;;;17.67;45.04;99801.09;4973645;28;20047;-76
2021/05/27 07:00:42;;;;;;;2.42;1.95;;;;;;;17.99;44.46;99800.25;4981909;28;20133;-75
2021/05/27 07:03:11;;;;;;;4.30;2.15;;;;;;;18.27;44.18;99802.50;4978536;28;20475;-77
2021/05/27 07:05:38;;;;;;;2.05;1.17;;;;;;;18.39;44.07;99803.78;4978610;28;20097;-74
2021/05/27 07:08:07;;;;;;;1.60;1.10;;;;;;;18.50;43.54;99806.09;4981300;28;20595;-74
2021/05/27 07:10:35;;;;;;;2.42;1.60;;;;;;;18.77;43.27;99814.66;4979654;28;20571;-75
2021/05/27 07:13:02;;;;;;;2.38;1.70;;;;;;;18.96;42.51;99809.88;4977819;28;20035;-75
2021/05/27 07:15:29;;;;;;;3.78;2.60;;;;;;;19.05;42.46;99814.19;4973292;28;20051;-74
2021/05/27 07:17:57;;;;;;;4.45;2.22;;;;;;;18.80;42.91;99808.09;4976800;28;20043;-76
2021/05/27 07:20:26;;;;;;;1.98;1.52;;;;;;;18.48;43.23;99808.09;4975667;28;20081;-74
2021/05/27 07:22:54;;;;;;;1.75;1.30;;;;;;;18.40;43.42;99824.19;4975768;28;20070;-75
2021/05/27 07:25:22;;;;;;;2.33;1.30;;;;;;;18.58;43.54;99815.06;4971925;28;20667;-76
2021/05/27 07:27:50;;;;;;;2.42;1.40;;;;;;;19.07;42.21;99825.56;4976386;28;20046;-73
2021/05/27 07:30:18;;;;;;;1.90;1.00;;;;;;;19.54;41.33;99819.19;4963881;28;20073;-75
2021/05/27 07:32:45;;;;;;;3.58;0.73;;;;;;;19.89;40.68;99816.88;4998000;28;20513;-75
2021/05/27 07:35:12;;;;;;;1.38;1.13;;;;;;;20.04;40.07;99824.94;5002637;28;20053;-75
2021/05/27 07:37:40;;;;;;;3.40;1.27;;;;;;;20.02;38.79;99817.09;4987842;28;20654;-76
2021/05/27 07:40:09;;;;;;;3.08;1.20;;;;;;;19.43;39.60;99838.38;4989170;28;20037;-75
2021/05/27 07:42:36;;;;;;;1.10;0.90;;;;;;;19.56;39.47;99822.53;5001106;28;20107;-73
2021/05/27 07:45:06;;;;;;;1.77;0.80;;;;;;;19.62;39.25;99826.31;4988649;28;20121;-72
2021/05/27 07:47:34;;;;;;;2.83;0.90;;;;;;;19.57;39.12;99824.19;5000427;28;20048;-75
2021/05/27 07:50:01;;;;;;;1.25;0.80;;;;;;;19.81;38.52;99822.34;4992456;28;20144;-74
2021/05/27 07:52:27;;;;;;;1.17;1.02;;;;;;;20.13;38.16;99825.69;4939851;28;20058;-74
2021/05/27 07:54:54;;;;;;;1.95;0.60;;;;;;;19.96;38.18;99830.41;4994957;28;20038;-74
2021/05/27 07:57:21;;;;;;;0.80;0.80;;;;;;;19.88;38.76;99834.00;4995449;28;20060;-74
2021/05/27 07:59:47;;;;;;;3.30;1.17;;;;;;;20.28;38.12;99826.53;4995659;28;20494;-73
2021/05/27 08:02:14;;;;;;;1.25;1.15;;;;;;;20.34;38.16;99828.47;5002610;28;20048;-75
2021/05/27 08:04:42;;;;;;;2.17;1.02;;;;;;;20.67;38.11;99828.13;5007982;28;20060;-75
2021/05/27 08:07:09;;;;;;;1.25;1.13;;;;;;;20.41;35.58;99810.63;5010790;28;20153;-73
2021/05/27 08:09:36;;;;;;;1.45;1.15;;;;;;;19.68;36.46;99829.13;5003382;28;20297;-71
2021/05/27 08:12:06;;;;;;;2.17;0.88;;;;;;;19.18;37.44;99830.50;4994184;28;20081;-75
2021/05/27 08:14:33;;;;;;;1.23;0.90;;;;;;;19.42;38.07;99828.66;4995760;28;20054;-74
2021/05/27 08:17:01;;;;;;;1.83;1.13;;;;;;;19.59;37.55;99843.59;4996429;28;20054;-74
2021/05/27 08:19:30;;;;;;;1.35;0.80;;;;;;;19.99;36.81;99833.56;4996784;28;20502;-77
2021/05/27 08:21:57;;;;;;;1.13;0.70;;;;;;;20.47;36.48;99841.22;4997121;28;20056;-75
2021/05/27 08:24:23;;;;;;;1.13;0.98;;;;;;;20.68;36.29;99845.06;4979248;28;20066;-74
2021/05/27 08:26:50;;;;;;;0.80;0.80;;;;;;;20.70;36.11;99838.47;4996097;28;20062;-74
2021/05/27 08:29:21;;;;;;;1.70;1.00;;;;;;;20.76;36.39;99855.66;4979505;28;20050;-75
2021/05/27 08:31:48;;;;;;;1.50;1.27;;;;;;;20.49;36.08;99849.09;4995914;28;20046;-73
2021/05/27 08:34:15;;;;;;;3.03;1.27;;;;;;;20.33;36.04;99848.28;4986534;28;20708;-74
2021/05/27 08:36:41;;;;;;;1.63;1.00;;;;;;;20.25;36.28;99856.41;4981169;28;20053;-75
2021/05/27 08:39:09;;;;;;;2.72;0.77;;;;;;;20.42;36.19;99852.53;4980014;28;20060;-74
2021/05/27 08:41:36;;;;;;;0.77;0.77;;;;;;;20.66;36.01;99855.16;4981537;28;20499;-74
2021/05/27 08:44:05;;;;;;;1.27;0.90;;;;;;;20.85;35.92;99861.78;4983624;28;20116;-75
2021/05/27 08:46:33;;;;;;;0.95;0.82;;;;;;;20.84;35.43;99866.31;4981174;28;20141;-75
2021/05/27 08:49:00;;;;;;;2.22;1.00;;;;;;;21.06;35.65;99864.50;4979872;28;20090;-75
2021/05/27 08:51:29;;;;;;;2.25;1.17;;;;;;;21.46;35.01;99854.19;4983941;28;20467;-74
2021/05/27 08:53:56;;;;;;;4.38;1.20;;;;;;;21.89;34.43;99856.03;4984646;28;20055;-75
2021/05/27 08:56:25;;;;;;;1.77;1.38;;;;;;;22.25;34.16;99853.16;4981864;28;20058;-73
2021/05/27 08:58:53;;;;;;;1.98;1.17;;;;;;;21.93;33.99;99868.91;4992445;28;20713;-75
2021/05/27 09:01:23;;;;;;;1.52;1.25;;;;;;;21.91;34.27;99857.50;4991146;28;20542;-74
2021/05/27 09:03:57;;;;;;;1.88;1.33;;;;;;;21.92;33.21;99863.72;4988690;28;20041;-73
2021/05/27 09:06:24;;;;;;;2.78;1.70;;;;;;;21.35;34.10;99860.88;4994805;28;20038;-71
2021/05/27 09:09:06;;;;;;;1.50;1.33;;;;;;;20.92;35.25;99870.72;4991970;28;20042;-74
2021/05/27 09:11:37;;;;;;;1.50;1.27;;;;;;;20.65;35.16;99865.03;4980009;28;20105;-74
2021/05/27 09:14:05;;;;;;;3.70;1.75;;;;;;;20.02;35.58;99873.41;4990219;28;20125;-74
2021/05/27 09:16:32;;;;;;;1.73;0.80;;;;;;;19.75;36.42;99876.66;4997422;28;20050;-76
2021/05/27 09:19:17;;;;;;;1.23;1.05;;;;;;;20.03;36.39;99885.78;4975847;28;20224;-72
2021/05/27 09:21:46;;;;;;;1.88;0.90;;;;;;;20.11;36.64;99881.34;4992983;28;20129;-72
2021/05/27 09:24:16;;;;;;;1.48;1.10;;;;;;;19.75;36.70;99892.72;4994821;28;20077;-74
2021/05/27 09:26:56;;;;;;;3.33;1.35;;;;;;;19.52;37.44;99893.53;4993124;28;20474;-72
2021/05/27 09:29:27;;;;;;;2.03;1.50;;;;;;;19.56;37.85;99894.84;4991375;28;20054;-74
2021/05/27 09:31:59;;;;;;;2.25;1.58;;;;;;;19.54;37.35;99899.56;4970124;28;20102;-74
2021/05/27 09:34:46;;;;;;;4.90;1.80;;;;;;;19.68;37.26;99888.06;4985748;28;20065;-73
2021/05/27 09:37:21;;;;;;;2.13;1.30;;;;;;;19.75;36.68;99900.75;4987042;28;20548;-72
2021/05/27 09:39:49;;;;;;;3.05;1.45;;;;;;;19.79;36.78;99902.91;4987422;28;20303;-73
2021/05/27 09:42:19;;;;;;;2.33;1.30;;;;;;;19.73;36.20;99900.06;4984158;28;20058;-74
2021/05/27 09:44:46;;;;;;;10.80;2.15;;;;;;;20.39;35.44;99901.19;4984819;28;20054;-73
2021/05/27 09:47:14;;;;;;;1.60;1.27;;;;;;;20.68;34.14;99896.03;4984237;28;20046;-75
2021/05/27 09:50:04;;;;;;;4.78;1.38;;;;;;;20.26;35.14;99906.34;4985748;28;20134;-73
2021/05/27 09:52:38;;;;;;;3.72;1.70;;;;;;;19.73;35.37;99913.47;4993317;28;20049;-73
2021/05/27 09:55:09;;;;;;;2.38;1.55;;;;;;;19.57;35.89;99917.97;4995108;28;20106;-73
2021/05/27 09:57:36;;;;;;;4.47;1.42;;;;;;;19.48;36.47;99911.81;4993067;28;20189;-74
2021/05/27 10:00:06;;;;;;;3.63;1.70;;;;;;;19.47;35.29;99907.47;4990138;28;20464;-73
2021/05/27 10:02:37;;;;;;;4.07;1.38;;;;;;;19.54;35.71;99912.13;4997192;28;20058;-74
2021/05/27 10:05:15;;;;;;;5.05;2.10;;;;;;;19.88;35.76;99922.44;4990129;28;20111;-74
2021/05/27 10:07:44;;;;;;;1.80;1.30;;;;;;;20.20;34.87;99917.78;4997463;28;20053;-75
2021/05/27 10:10:12;;;;;;;1.95;1.08;;;;;;;20.28;35.04;99919.59;4998166;28;20054;-75
2021/05/27 10:12:40;;;;;;;2.72;1.30;;;;;;;20.44;35.35;99916.72;4984613;28;20054;-74
2021/05/27 10:15:09;;;;;;;4.47;1.50;;;;;;;20.56;34.71;99915.25;4985700;28;20568;-73
2021/05/27 10:17:37;;;;;;;5.18;1.15;;;;;;;20.73;34.95;99913.25;4988174;28;20050;-74
2021/05/27 10:20:08;;;;;;;2.28;1.58;;;;;;;20.83;33.12;99901.38;4982937;28;20610;-74
2021/05/27 10:22:37;;;;;;;2.45;1.17;;;;;;;20.74;33.95;99916.75;4984103;28;20047;-73
2021/05/27 10:25:07;;;;;;;5.55;1.20;;;;;;;20.61;33.35;99904.00;4983407;28;20056;-74
2021/05/27 10:27:34;;;;;;;5.78;1.67;;;;;;;20.98;33.63;99912.97;4983227;28;20382;-74
2021/05/27 10:30:02;;;;;;;1.55;1.00;;;;;;;21.48;33.54;99911.28;4980707;28;20782;-76
2021/05/27 10:32:29;;;;;;;1.98;1.38;;;;;;;21.75;32.70;99907.00;4981379;28;20054;-74
2021/05/27 10:34:56;;;;;;;1.90;1.50;;;;;;;21.53;32.79;99913.38;4981792;28;20053;-73
2021/05/27 10:37:48;;;;;;;2.50;1.35;;;;;;;21.17;33.21;99917.72;4982293;28;20042;-75
2021/05/27 10:40:37;;;;;;;0.93;0.90;;;;;;;21.33;33.40;99919.34;4986577;28;20383;-73
2021/05/27 10:43:10;;;;;;;3.08;1.58;;;;;;;21.04;32.97;99912.19;4990815;28;20042;-73
2021/05/27 10:46:03;;;;;;;2.85;1.50;;;;;;;20.43;33.06;99923.09;4991140;28;20045;-77
2021/05/27 10:48:32;;;;;;;4.18;1.55;;;;;;;20.21;33.54;99914.09;4987761;28;20053;-74
2021/05/27 10:51:07;;;;;;;1.33;1.23;;;;;;;19.98;33.83;99931.06;4998917;28;20624;-74
2021/05/27 10:53:53;;;;;;;2.58;1.33;;;;;;;20.01;34.50;99928.03;4984312;28;20070;-73
2021/05/27 10:56:23;;;;;;;2.97;1.52;;;;;;;20.40;34.44;99923.47;4982218;28;20285;-73
2021/05/27 10:59:13;;;;;;;1.77;1.17;;;;;;;20.85;34.46;99926.19;4981510;28;20050;-76
2021/05/27 11:02:15;;;;;;;2.58;1.35;;;;;;;20.59;32.83;99932.81;4983658;28;20045;-74
2021/05/27 11:04:45;;;;;;;5.20;1.05;;;;;;;20.89;33.02;99940.94;4988269;28;20042;-74
2021/05/27 11:07:20;;;;;;;2.28;1.38;;;;;;;20.95;32.25;99932.94;4992850;28;20058;-75
2021/05/27 11:09:50;;;;;;;1.20;1.10;;;;;;;20.68;31.35;99931.75;4974217;28;20050;-73
2021/05/27 11:12:20;;;;;;;4.20;1.17;;;;;;;21.11;32.11;99931.91;4992478;28;20049;-74
2021/05/27 11:15:04;;;;;;;2.60;1.10;;;;;;;21.39;32.26;99932.03;4991612;28;20042;-74
2021/05/27 11:17:33;;;;;;;5.50;1.50;;;;;;;21.72;32.12;99933.44;4960404;28;20051;-74
2021/05/27 11:20:04;;;;;;;4.18;1.15;;;;;;;21.76;32.39;99932.03;4984614;28;20526;-74
2021/05/27 11:25:41;;;;;;;2.00;1.30;;;;;;;22.00;32.54;99930.78;4987595;28;20241;-73
2021/05/27 11:28:25;;;;;;;1.98;1.60;;;;;;;21.78;31.78;99938.03;4989296;28;20120;-74
2021/05/27 11:30:54;;;;;;;2.78;2.00;;;;;;;21.86;31.42;99934.38;4978725;28;20041;-73
2021/05/27 11:33:38;;;;;;;2.15;1.40;;;;;;;22.04;31.08;99940.16;4992773;28;20068;-73
2021/05/27 11:36:07;;;;;;;1.70;1.08;;;;;;;22.19;31.38;99941.91;4999368;28;20077;-72
2021/05/27 11:38:36;;;;;;;3.47;1.52;;;;;;;22.29;30.49;99945.97;4993700;28;20106;-74
2021/05/27 11:41:06;;;;;;;4.03;1.58;;;;;;;21.87;30.61;99936.88;4992047;28;20042;-75
2021/05/27 11:43:39;;;;;;;1.98;1.20;;;;;;;21.58;30.50;99927.91;4992074;28;20050;-73
2021/05/27 11:46:12;;;;;;;4.85;1.30;;;;;;;21.43;31.28;99940.53;4995035;28;20610;-73
2021/05/27 11:48:42;;;;;;;4.63;2.45;;;;;;;21.54;31.68;99936.56;4993515;28;20107;-73
2021/05/27 11:51:12;;;;;;;4.15;1.42;;;;;;;21.76;31.72;99940.09;4994369;28;20054;-74
2021/05/27 11:53:46;;;;;;;2.25;1.20;;;;;;;21.89;31.52;99937.50;4995496;28;20042;-74